sensor_id;sensor_type;location;lat;lon;timestamp;P1;durP1;ratioP1;P2;durP2;ratioP2
51184;SDS011;37248;59.350;18.050;2022-07-09T00:00:17;1.38;;;0.30;;
51184;SDS011;37248;59.350;18.050;2022-07-09T00:02:43;1.37;;;0.40;;
51184;SDS011;37248;59.350;18.050;2022-07-09T00:05:08;1.33;;;0.57;;
51184;SDS011;37248;59.350;18.050;2022-07-09T00:07:33;1.87;;;0.47;;
51184;SDS011;37248;59.350;18.050;2022-07-09T00:09:59;0.67;;;0.37;;
51184;SDS011;37248;59.350;18.050;2022-07-09T00:12:24;3.67;;;0.40;;
51184;SDS011;37248;59.350;18.050;2022-07-09T00:14:49;0.50;;;0.20;;
51184;SDS011;37248;59.350;18.050;2022-07-09T00:17:15;1.17;;;0.35;;
51184;SDS011;37248;59.350;18.050;2022-07-09T00:19:41;2.50;;;0.40;;
51184;SDS011;37248;59.350;18.050;2022-07-09T00:22:06;1.50;;;0.40;;
51184;SDS011;37248;59.350;18.050;2022-07-09T00:24:31;2.00;;;0.50;;
51184;SDS011;37248;59.350;18.050;2022-07-09T00:26:57;0.50;;;0.30;;
51184;SDS011;37248;59.350;18.050;2022-07-09T00:29:22;0.97;;;0.30;;
51184;SDS011;37248;59.350;18.050;2022-07-09T00:31:47;0.50;;;0.30;;
51184;SDS011;37248;59.350;18.050;2022-07-09T00:34:13;1.07;;;0.30;;
51184;SDS011;37248;59.350;18.050;2022-07-09T00:36:38;1.83;;;0.27;;
51184;SDS011;37248;59.350;18.050;2022-07-09T00:39:03;0.70;;;0.27;;
51184;SDS011;37248;59.350;18.050;2022-07-09T00:41:29;0.60;;;0.20;;
51184;SDS011;37248;59.350;18.050;2022-07-09T00:43:54;0.57;;;0.35;;
51184;SDS011;37248;59.350;18.050;2022-07-09T00:46:19;0.53;;;0.30;;
51184;SDS011;37248;59.350;18.050;2022-07-09T00:48:45;0.70;;;0.30;;
51184;SDS011;37248;59.350;18.050;2022-07-09T00:51:14;0.50;;;0.20;;
51184;SDS011;37248;59.350;18.050;2022-07-09T00:53:39;0.68;;;0.22;;
51184;SDS011;37248;59.350;18.050;2022-07-09T00:56:05;0.95;;;0.20;;
51184;SDS011;37248;59.350;18.050;2022-07-09T00:58:30;0.40;;;0.20;;
51184;SDS011;37248;59.350;18.050;2022-07-09T01:00:56;0.60;;;0.30;;
51184;SDS011;37248;59.350;18.050;2022-07-09T01:03:21;1.67;;;0.30;;
51184;SDS011;37248;59.350;18.050;2022-07-09T01:05:46;1.00;;;0.20;;
51184;SDS011;37248;59.350;18.050;2022-07-09T01:08:12;0.20;;;0.10;;
51184;SDS011;37248;59.350;18.050;2022-07-09T01:10:37;1.03;;;0.20;;
51184;SDS011;37248;59.350;18.050;2022-07-09T01:13:03;0.40;;;0.20;;
51184;SDS011;37248;59.350;18.050;2022-07-09T01:15:29;1.30;;;0.30;;
51184;SDS011;37248;59.350;18.050;2022-07-09T01:17:54;0.60;;;0.30;;
51184;SDS011;37248;59.350;18.050;2022-07-09T01:20:30;0.98;;;0.25;;
51184;SDS011;37248;59.350;18.050;2022-07-09T01:22:55;0.55;;;0.30;;
51184;SDS011;37248;59.350;18.050;2022-07-09T01:25:27;0.70;;;0.30;;
51184;SDS011;37248;59.350;18.050;2022-07-09T01:27:56;0.32;;;0.20;;
51184;SDS011;37248;59.350;18.050;2022-07-09T01:30:25;0.30;;;0.13;;
51184;SDS011;37248;59.350;18.050;2022-07-09T01:32:51;0.60;;;0.30;;
51184;SDS011;37248;59.350;18.050;2022-07-09T01:35:17;0.47;;;0.20;;
51184;SDS011;37248;59.350;18.050;2022-07-09T01:37:42;0.30;;;0.20;;
51184;SDS011;37248;59.350;18.050;2022-07-09T01:40:07;1.47;;;0.20;;
51184;SDS011;37248;59.350;18.050;2022-07-09T01:42:33;1.40;;;0.23;;
51184;SDS011;37248;59.350;18.050;2022-07-09T01:44:58;1.47;;;0.20;;
51184;SDS011;37248;59.350;18.050;2022-07-09T01:47:23;1.33;;;0.30;;
51184;SDS011;37248;59.350;18.050;2022-07-09T01:49:48;2.90;;;0.30;;
51184;SDS011;37248;59.350;18.050;2022-07-09T01:52:14;1.20;;;0.40;;
51184;SDS011;37248;59.350;18.050;2022-07-09T01:54:39;1.90;;;0.27;;
51184;SDS011;37248;59.350;18.050;2022-07-09T01:57:04;3.17;;;0.40;;
51184;SDS011;37248;59.350;18.050;2022-07-09T01:59:30;5.47;;;0.38;;
51184;SDS011;37248;59.350;18.050;2022-07-09T02:01:55;12.90;;;0.60;;
51184;SDS011;37248;59.350;18.050;2022-07-09T02:04:20;1.70;;;0.30;;
51184;SDS011;37248;59.350;18.050;2022-07-09T02:06:45;2.37;;;0.30;;
51184;SDS011;37248;59.350;18.050;2022-07-09T02:09:11;11.45;;;0.40;;
51184;SDS011;37248;59.350;18.050;2022-07-09T02:11:36;5.30;;;0.30;;
51184;SDS011;37248;59.350;18.050;2022-07-09T02:14:02;1.23;;;0.30;;
51184;SDS011;37248;59.350;18.050;2022-07-09T02:16:27;1.50;;;0.20;;
51184;SDS011;37248;59.350;18.050;2022-07-09T02:18:52;0.57;;;0.20;;
51184;SDS011;37248;59.350;18.050;2022-07-09T02:21:18;0.77;;;0.17;;
51184;SDS011;37248;59.350;18.050;2022-07-09T02:23:43;1.60;;;0.20;;
51184;SDS011;37248;59.350;18.050;2022-07-09T02:26:10;1.00;;;0.40;;
51184;SDS011;37248;59.350;18.050;2022-07-09T02:28:35;0.43;;;0.20;;
51184;SDS011;37248;59.350;18.050;2022-07-09T02:31:01;1.30;;;0.20;;
51184;SDS011;37248;59.350;18.050;2022-07-09T02:33:26;0.50;;;0.30;;
51184;SDS011;37248;59.350;18.050;2022-07-09T02:35:51;0.73;;;0.30;;
51184;SDS011;37248;59.350;18.050;2022-07-09T02:38:16;0.80;;;0.30;;
51184;SDS011;37248;59.350;18.050;2022-07-09T02:40:42;1.80;;;0.23;;
51184;SDS011;37248;59.350;18.050;2022-07-09T02:43:07;1.30;;;0.20;;
51184;SDS011;37248;59.350;18.050;2022-07-09T02:45:32;0.97;;;0.33;;
51184;SDS011;37248;59.350;18.050;2022-07-09T02:47:57;0.70;;;0.20;;
51184;SDS011;37248;59.350;18.050;2022-07-09T02:50:23;0.73;;;0.20;;
51184;SDS011;37248;59.350;18.050;2022-07-09T02:52:48;0.77;;;0.20;;
51184;SDS011;37248;59.350;18.050;2022-07-09T02:55:13;0.30;;;0.20;;
51184;SDS011;37248;59.350;18.050;2022-07-09T02:57:39;0.63;;;0.20;;
51184;SDS011;37248;59.350;18.050;2022-07-09T03:00:04;1.00;;;0.30;;
51184;SDS011;37248;59.350;18.050;2022-07-09T03:02:30;1.70;;;0.28;;
51184;SDS011;37248;59.350;18.050;2022-07-09T03:04:55;0.30;;;0.20;;
51184;SDS011;37248;59.350;18.050;2022-07-09T03:07:20;0.50;;;0.30;;
51184;SDS011;37248;59.350;18.050;2022-07-09T03:09:45;1.43;;;0.30;;
51184;SDS011;37248;59.350;18.050;2022-07-09T03:12:11;0.60;;;0.20;;
51184;SDS011;37248;59.350;18.050;2022-07-09T03:14:36;0.77;;;0.40;;
51184;SDS011;37248;59.350;18.050;2022-07-09T03:17:01;0.57;;;0.20;;
51184;SDS011;37248;59.350;18.050;2022-07-09T03:19:26;0.70;;;0.30;;
51184;SDS011;37248;59.350;18.050;2022-07-09T03:21:51;0.27;;;0.20;;
51184;SDS011;37248;59.350;18.050;2022-07-09T03:24:17;0.43;;;0.20;;
51184;SDS011;37248;59.350;18.050;2022-07-09T03:26:42;1.03;;;0.30;;
51184;SDS011;37248;59.350;18.050;2022-07-09T03:29:07;0.50;;;0.20;;
51184;SDS011;37248;59.350;18.050;2022-07-09T03:31:33;0.20;;;0.10;;
51184;SDS011;37248;59.350;18.050;2022-07-09T03:33:59;0.70;;;0.20;;
51184;SDS011;37248;59.350;18.050;2022-07-09T03:36:24;0.40;;;0.20;;
51184;SDS011;37248;59.350;18.050;2022-07-09T03:38:49;0.60;;;0.20;;
51184;SDS011;37248;59.350;18.050;2022-07-09T03:41:14;2.13;;;0.23;;
51184;SDS011;37248;59.350;18.050;2022-07-09T03:43:40;0.47;;;0.20;;
51184;SDS011;37248;59.350;18.050;2022-07-09T03:46:05;0.43;;;0.20;;
51184;SDS011;37248;59.350;18.050;2022-07-09T03:48:30;1.10;;;0.20;;
51184;SDS011;37248;59.350;18.050;2022-07-09T03:50:56;1.40;;;0.30;;
51184;SDS011;37248;59.350;18.050;2022-07-09T03:53:21;1.40;;;0.20;;
51184;SDS011;37248;59.350;18.050;2022-07-09T03:55:46;0.43;;;0.10;;
51184;SDS011;37248;59.350;18.050;2022-07-09T03:58:11;1.00;;;0.20;;
51184;SDS011;37248;59.350;18.050;2022-07-09T04:00:36;0.60;;;0.20;;
51184;SDS011;37248;59.350;18.050;2022-07-09T04:03:02;1.50;;;0.30;;
51184;SDS011;37248;59.350;18.050;2022-07-09T04:05:27;5.10;;;0.50;;
51184;SDS011;37248;59.350;18.050;2022-07-09T04:07:52;4.35;;;0.40;;
51184;SDS011;37248;59.350;18.050;2022-07-09T04:10:18;11.53;;;0.80;;
51184;SDS011;37248;59.350;18.050;2022-07-09T04:12:43;8.30;;;0.90;;
51184;SDS011;37248;59.350;18.050;2022-07-09T04:15:08;6.87;;;0.40;;
51184;SDS011;37248;59.350;18.050;2022-07-09T04:17:34;5.37;;;0.40;;
51184;SDS011;37248;59.350;18.050;2022-07-09T04:20:00;4.15;;;0.30;;
51184;SDS011;37248;59.350;18.050;2022-07-09T04:22:25;4.03;;;0.30;;
51184;SDS011;37248;59.350;18.050;2022-07-09T04:24:51;5.75;;;0.30;;
51184;SDS011;37248;59.350;18.050;2022-07-09T04:27:16;1.90;;;0.20;;
51184;SDS011;37248;59.350;18.050;2022-07-09T04:29:41;4.60;;;0.43;;
51184;SDS011;37248;59.350;18.050;2022-07-09T04:32:07;2.33;;;0.40;;
51184;SDS011;37248;59.350;18.050;2022-07-09T04:34:32;3.07;;;0.20;;
51184;SDS011;37248;59.350;18.050;2022-07-09T04:36:57;3.93;;;0.37;;
51184;SDS011;37248;59.350;18.050;2022-07-09T04:39:23;1.77;;;0.30;;
51184;SDS011;37248;59.350;18.050;2022-07-09T04:41:49;2.90;;;0.30;;
51184;SDS011;37248;59.350;18.050;2022-07-09T04:44:14;1.80;;;0.20;;
51184;SDS011;37248;59.350;18.050;2022-07-09T04:46:41;0.90;;;0.10;;
51184;SDS011;37248;59.350;18.050;2022-07-09T04:49:06;1.00;;;0.20;;
51184;SDS011;37248;59.350;18.050;2022-07-09T04:51:32;2.07;;;0.20;;
51184;SDS011;37248;59.350;18.050;2022-07-09T04:53:57;1.90;;;0.20;;
51184;SDS011;37248;59.350;18.050;2022-07-09T04:56:22;0.87;;;0.20;;
51184;SDS011;37248;59.350;18.050;2022-07-09T04:58:47;3.95;;;0.20;;
51184;SDS011;37248;59.350;18.050;2022-07-09T05:01:22;0.40;;;0.20;;
51184;SDS011;37248;59.350;18.050;2022-07-09T05:03:47;0.93;;;0.20;;
51184;SDS011;37248;59.350;18.050;2022-07-09T05:06:14;1.53;;;0.20;;
51184;SDS011;37248;59.350;18.050;2022-07-09T05:08:39;2.00;;;0.20;;
51184;SDS011;37248;59.350;18.050;2022-07-09T05:11:05;3.40;;;0.20;;
51184;SDS011;37248;59.350;18.050;2022-07-09T05:13:30;1.60;;;0.60;;
51184;SDS011;37248;59.350;18.050;2022-07-09T05:15:55;1.80;;;0.20;;
51184;SDS011;37248;59.350;18.050;2022-07-09T05:18:20;1.20;;;0.30;;
51184;SDS011;37248;59.350;18.050;2022-07-09T05:20:46;2.58;;;0.30;;
51184;SDS011;37248;59.350;18.050;2022-07-09T05:23:11;1.50;;;0.20;;
51184;SDS011;37248;59.350;18.050;2022-07-09T05:25:37;2.50;;;0.50;;
51184;SDS011;37248;59.350;18.050;2022-07-09T05:28:02;1.33;;;0.30;;
51184;SDS011;37248;59.350;18.050;2022-07-09T05:30:27;4.70;;;0.20;;
51184;SDS011;37248;59.350;18.050;2022-07-09T05:32:52;1.10;;;0.20;;
51184;SDS011;37248;59.350;18.050;2022-07-09T05:35:18;3.00;;;0.20;;
51184;SDS011;37248;59.350;18.050;2022-07-09T05:37:43;2.10;;;0.30;;
51184;SDS011;37248;59.350;18.050;2022-07-09T05:40:09;2.40;;;0.30;;
51184;SDS011;37248;59.350;18.050;2022-07-09T05:42:35;4.47;;;0.25;;
51184;SDS011;37248;59.350;18.050;2022-07-09T05:45:00;2.67;;;0.30;;
51184;SDS011;37248;59.350;18.050;2022-07-09T05:47:25;1.70;;;0.20;;
51184;SDS011;37248;59.350;18.050;2022-07-09T05:49:50;1.50;;;0.20;;
51184;SDS011;37248;59.350;18.050;2022-07-09T05:52:16;1.47;;;0.20;;
51184;SDS011;37248;59.350;18.050;2022-07-09T05:54:41;1.30;;;0.20;;
51184;SDS011;37248;59.350;18.050;2022-07-09T05:57:06;1.57;;;0.40;;
51184;SDS011;37248;59.350;18.050;2022-07-09T05:59:31;2.85;;;0.77;;
51184;SDS011;37248;59.350;18.050;2022-07-09T06:01:57;3.70;;;0.70;;
51184;SDS011;37248;59.350;18.050;2022-07-09T06:04:22;2.50;;;0.70;;
51184;SDS011;37248;59.350;18.050;2022-07-09T06:06:47;5.43;;;0.57;;
51184;SDS011;37248;59.350;18.050;2022-07-09T06:09:13;5.37;;;0.70;;
51184;SDS011;37248;59.350;18.050;2022-07-09T06:11:38;2.38;;;0.60;;
51184;SDS011;37248;59.350;18.050;2022-07-09T06:14:03;1.03;;;0.43;;
51184;SDS011;37248;59.350;18.050;2022-07-09T06:16:29;2.57;;;0.77;;
51184;SDS011;37248;59.350;18.050;2022-07-09T06:18:54;3.47;;;1.43;;
51184;SDS011;37248;59.350;18.050;2022-07-09T06:21:19;10.93;;;4.53;;
51184;SDS011;37248;59.350;18.050;2022-07-09T06:23:44;21.00;;;6.50;;
51184;SDS011;37248;59.350;18.050;2022-07-09T06:26:10;31.07;;;8.00;;
51184;SDS011;37248;59.350;18.050;2022-07-09T06:28:36;31.40;;;9.43;;
51184;SDS011;37248;59.350;18.050;2022-07-09T06:31:01;30.92;;;9.25;;
51184;SDS011;37248;59.350;18.050;2022-07-09T06:33:26;36.65;;;10.60;;
51184;SDS011;37248;59.350;18.050;2022-07-09T06:35:52;30.03;;;10.97;;
51184;SDS011;37248;59.350;18.050;2022-07-09T06:38:17;24.20;;;9.93;;
51184;SDS011;37248;59.350;18.050;2022-07-09T06:40:42;29.30;;;10.10;;
51184;SDS011;37248;59.350;18.050;2022-07-09T06:43:07;23.07;;;9.27;;
51184;SDS011;37248;59.350;18.050;2022-07-09T06:45:34;34.08;;;9.25;;
51184;SDS011;37248;59.350;18.050;2022-07-09T06:48:00;36.73;;;8.90;;
51184;SDS011;37248;59.350;18.050;2022-07-09T06:50:25;42.27;;;9.17;;
51184;SDS011;37248;59.350;18.050;2022-07-09T06:52:50;50.35;;;9.80;;
51184;SDS011;37248;59.350;18.050;2022-07-09T06:55:15;52.03;;;9.07;;
51184;SDS011;37248;59.350;18.050;2022-07-09T06:57:41;40.97;;;7.83;;
51184;SDS011;37248;59.350;18.050;2022-07-09T07:00:06;34.03;;;7.70;;
51184;SDS011;37248;59.350;18.050;2022-07-09T07:02:32;42.07;;;7.43;;
51184;SDS011;37248;59.350;18.050;2022-07-09T07:04:57;32.33;;;6.80;;
51184;SDS011;37248;59.350;18.050;2022-07-09T07:07:22;22.67;;;6.27;;
51184;SDS011;37248;59.350;18.050;2022-07-09T07:09:48;30.70;;;5.23;;
51184;SDS011;37248;59.350;18.050;2022-07-09T07:12:13;20.10;;;5.57;;
51184;SDS011;37248;59.350;18.050;2022-07-09T07:14:38;18.27;;;4.60;;
51184;SDS011;37248;59.350;18.050;2022-07-09T07:17:03;18.83;;;4.70;;
51184;SDS011;37248;59.350;18.050;2022-07-09T07:19:29;22.43;;;4.80;;
51184;SDS011;37248;59.350;18.050;2022-07-09T07:21:54;13.80;;;3.70;;
51184;SDS011;37248;59.350;18.050;2022-07-09T07:24:19;18.43;;;4.27;;
51184;SDS011;37248;59.350;18.050;2022-07-09T07:26:45;18.20;;;3.47;;
51184;SDS011;37248;59.350;18.050;2022-07-09T07:29:10;15.40;;;3.17;;
51184;SDS011;37248;59.350;18.050;2022-07-09T07:31:35;13.03;;;3.30;;
51184;SDS011;37248;59.350;18.050;2022-07-09T07:34:01;13.37;;;3.27;;
51184;SDS011;37248;59.350;18.050;2022-07-09T07:36:26;18.23;;;3.53;;
51184;SDS011;37248;59.350;18.050;2022-07-09T07:38:52;14.60;;;2.63;;
51184;SDS011;37248;59.350;18.050;2022-07-09T07:41:17;10.33;;;2.47;;
51184;SDS011;37248;59.350;18.050;2022-07-09T07:43:43;11.50;;;2.40;;
51184;SDS011;37248;59.350;18.050;2022-07-09T07:46:08;8.02;;;2.30;;
51184;SDS011;37248;59.350;18.050;2022-07-09T07:48:34;6.73;;;1.63;;
51184;SDS011;37248;59.350;18.050;2022-07-09T07:51:01;13.10;;;2.20;;
51184;SDS011;37248;59.350;18.050;2022-07-09T07:53:26;12.30;;;2.17;;
51184;SDS011;37248;59.350;18.050;2022-07-09T07:55:51;10.47;;;2.63;;
51184;SDS011;37248;59.350;18.050;2022-07-09T07:58:17;14.97;;;2.37;;
51184;SDS011;37248;59.350;18.050;2022-07-09T08:00:42;12.33;;;3.20;;
51184;SDS011;37248;59.350;18.050;2022-07-09T08:03:07;9.97;;;2.63;;
51184;SDS011;37248;59.350;18.050;2022-07-09T08:05:32;9.73;;;2.87;;
51184;SDS011;37248;59.350;18.050;2022-07-09T08:07:58;13.60;;;2.60;;
51184;SDS011;37248;59.350;18.050;2022-07-09T08:10:23;12.50;;;3.17;;
51184;SDS011;37248;59.350;18.050;2022-07-09T08:12:49;10.95;;;3.60;;
51184;SDS011;37248;59.350;18.050;2022-07-09T08:15:14;12.68;;;3.60;;
51184;SDS011;37248;59.350;18.050;2022-07-09T08:17:39;10.07;;;3.00;;
51184;SDS011;37248;59.350;18.050;2022-07-09T08:20:06;7.77;;;3.20;;
51184;SDS011;37248;59.350;18.050;2022-07-09T08:22:31;11.40;;;3.60;;
51184;SDS011;37248;59.350;18.050;2022-07-09T08:24:56;10.83;;;3.63;;
51184;SDS011;37248;59.350;18.050;2022-07-09T08:27:21;10.40;;;3.30;;
51184;SDS011;37248;59.350;18.050;2022-07-09T08:29:47;10.17;;;3.90;;
51184;SDS011;37248;59.350;18.050;2022-07-09T08:32:14;10.20;;;3.78;;
51184;SDS011;37248;59.350;18.050;2022-07-09T08:34:40;9.30;;;3.70;;
51184;SDS011;37248;59.350;18.050;2022-07-09T08:37:05;14.10;;;4.07;;
51184;SDS011;37248;59.350;18.050;2022-07-09T08:39:30;8.80;;;3.33;;
51184;SDS011;37248;59.350;18.050;2022-07-09T08:41:56;9.17;;;3.73;;
51184;SDS011;37248;59.350;18.050;2022-07-09T08:44:21;8.93;;;3.60;;
51184;SDS011;37248;59.350;18.050;2022-07-09T08:46:50;7.90;;;3.55;;
51184;SDS011;37248;59.350;18.050;2022-07-09T08:49:16;10.57;;;3.85;;
51184;SDS011;37248;59.350;18.050;2022-07-09T08:51:41;7.40;;;3.40;;
51184;SDS011;37248;59.350;18.050;2022-07-09T08:54:08;8.93;;;3.25;;
51184;SDS011;37248;59.350;18.050;2022-07-09T08:56:33;8.50;;;3.30;;
51184;SDS011;37248;59.350;18.050;2022-07-09T08:58:59;7.30;;;3.17;;
51184;SDS011;37248;59.350;18.050;2022-07-09T09:01:24;7.50;;;3.07;;
51184;SDS011;37248;59.350;18.050;2022-07-09T09:03:50;6.17;;;3.20;;
51184;SDS011;37248;59.350;18.050;2022-07-09T09:06:16;8.97;;;3.40;;
51184;SDS011;37248;59.350;18.050;2022-07-09T09:08:42;6.40;;;2.90;;
51184;SDS011;37248;59.350;18.050;2022-07-09T09:11:14;9.23;;;3.70;;
51184;SDS011;37248;59.350;18.050;2022-07-09T09:13:40;4.88;;;2.60;;
51184;SDS011;37248;59.350;18.050;2022-07-09T09:16:06;7.93;;;3.13;;
51184;SDS011;37248;59.350;18.050;2022-07-09T09:18:51;6.55;;;2.90;;
51184;SDS011;37248;59.350;18.050;2022-07-09T09:21:18;7.60;;;3.22;;
51184;SDS011;37248;59.350;18.050;2022-07-09T09:23:45;5.68;;;2.67;;
51184;SDS011;37248;59.350;18.050;2022-07-09T09:26:11;6.63;;;3.10;;
51184;SDS011;37248;59.350;18.050;2022-07-09T09:28:46;5.60;;;2.70;;
51184;SDS011;37248;59.350;18.050;2022-07-09T09:31:22;6.05;;;2.40;;
51184;SDS011;37248;59.350;18.050;2022-07-09T09:33:48;5.38;;;2.65;;
51184;SDS011;37248;59.350;18.050;2022-07-09T09:36:30;6.82;;;2.72;;
51184;SDS011;37248;59.350;18.050;2022-07-09T09:41:33;4.93;;;2.47;;
51184;SDS011;37248;59.350;18.050;2022-07-09T09:43:59;4.97;;;2.40;;
51184;SDS011;37248;59.350;18.050;2022-07-09T09:46:26;5.03;;;2.95;;
51184;SDS011;37248;59.350;18.050;2022-07-09T09:48:51;5.63;;;2.58;;
51184;SDS011;37248;59.350;18.050;2022-07-09T09:51:16;5.17;;;2.63;;
51184;SDS011;37248;59.350;18.050;2022-07-09T09:53:44;3.95;;;2.08;;
51184;SDS011;37248;59.350;18.050;2022-07-09T09:56:10;3.85;;;1.90;;
51184;SDS011;37248;59.350;18.050;2022-07-09T09:58:35;5.13;;;2.10;;
51184;SDS011;37248;59.350;18.050;2022-07-09T10:01:01;4.13;;;2.10;;
51184;SDS011;37248;59.350;18.050;2022-07-09T10:03:26;6.70;;;2.27;;
51184;SDS011;37248;59.350;18.050;2022-07-09T10:05:51;3.50;;;2.00;;
51184;SDS011;37248;59.350;18.050;2022-07-09T10:08:17;4.20;;;1.80;;
51184;SDS011;37248;59.350;18.050;2022-07-09T10:10:51;4.20;;;1.90;;
51184;SDS011;37248;59.350;18.050;2022-07-09T10:13:20;3.47;;;1.73;;
51184;SDS011;37248;59.350;18.050;2022-07-09T10:15:48;3.17;;;1.77;;
51184;SDS011;37248;59.350;18.050;2022-07-09T10:18:16;3.40;;;1.90;;
51184;SDS011;37248;59.350;18.050;2022-07-09T10:20:43;4.97;;;2.00;;
51184;SDS011;37248;59.350;18.050;2022-07-09T10:23:08;3.22;;;1.80;;
51184;SDS011;37248;59.350;18.050;2022-07-09T10:25:45;3.23;;;1.90;;
51184;SDS011;37248;59.350;18.050;2022-07-09T10:28:17;3.55;;;1.85;;
51184;SDS011;37248;59.350;18.050;2022-07-09T10:30:42;2.50;;;1.40;;
51184;SDS011;37248;59.350;18.050;2022-07-09T10:33:09;2.85;;;1.50;;
51184;SDS011;37248;59.350;18.050;2022-07-09T10:35:39;4.13;;;1.60;;
51184;SDS011;37248;59.350;18.050;2022-07-09T10:38:05;3.20;;;1.50;;
51184;SDS011;37248;59.350;18.050;2022-07-09T10:40:36;3.33;;;1.60;;
51184;SDS011;37248;59.350;18.050;2022-07-09T10:43:02;2.72;;;1.58;;
51184;SDS011;37248;59.350;18.050;2022-07-09T10:45:29;2.70;;;1.35;;
51184;SDS011;37248;59.350;18.050;2022-07-09T10:47:59;2.33;;;1.25;;
51184;SDS011;37248;59.350;18.050;2022-07-09T10:50:25;3.28;;;1.55;;
51184;SDS011;37248;59.350;18.050;2022-07-09T10:52:51;2.73;;;1.53;;
51184;SDS011;37248;59.350;18.050;2022-07-09T10:55:19;2.33;;;1.40;;
51184;SDS011;37248;59.350;18.050;2022-07-09T10:57:45;2.55;;;1.33;;
51184;SDS011;37248;59.350;18.050;2022-07-09T11:00:17;3.30;;;1.40;;
51184;SDS011;37248;59.350;18.050;2022-07-09T11:02:52;2.88;;;1.45;;
51184;SDS011;37248;59.350;18.050;2022-07-09T11:05:18;2.95;;;1.58;;
51184;SDS011;37248;59.350;18.050;2022-07-09T11:07:43;2.43;;;1.40;;
51184;SDS011;37248;59.350;18.050;2022-07-09T11:10:18;3.20;;;1.40;;
51184;SDS011;37248;59.350;18.050;2022-07-09T11:12:47;2.77;;;1.40;;
51184;SDS011;37248;59.350;18.050;2022-07-09T11:15:16;2.67;;;1.20;;
51184;SDS011;37248;59.350;18.050;2022-07-09T11:17:41;2.30;;;1.10;;
51184;SDS011;37248;59.350;18.050;2022-07-09T11:20:07;1.57;;;1.00;;
51184;SDS011;37248;59.350;18.050;2022-07-09T11:22:35;2.17;;;1.20;;
51184;SDS011;37248;59.350;18.050;2022-07-09T11:25:00;2.40;;;1.30;;
51184;SDS011;37248;59.350;18.050;2022-07-09T11:27:25;2.17;;;1.10;;
51184;SDS011;37248;59.350;18.050;2022-07-09T11:29:50;2.10;;;1.10;;
51184;SDS011;37248;59.350;18.050;2022-07-09T11:32:16;2.80;;;1.40;;
51184;SDS011;37248;59.350;18.050;2022-07-09T11:34:49;2.80;;;1.00;;
51184;SDS011;37248;59.350;18.050;2022-07-09T11:37:21;1.65;;;0.82;;
51184;SDS011;37248;59.350;18.050;2022-07-09T11:39:50;1.38;;;0.80;;
51184;SDS011;37248;59.350;18.050;2022-07-09T11:42:18;2.53;;;1.20;;
51184;SDS011;37248;59.350;18.050;2022-07-09T11:44:52;1.80;;;0.90;;
51184;SDS011;37248;59.350;18.050;2022-07-09T11:47:18;2.08;;;1.10;;
51184;SDS011;37248;59.350;18.050;2022-07-09T11:49:46;1.35;;;0.90;;
51184;SDS011;37248;59.350;18.050;2022-07-09T11:52:19;2.40;;;1.07;;
51184;SDS011;37248;59.350;18.050;2022-07-09T11:57:19;1.55;;;0.90;;
51184;SDS011;37248;59.350;18.050;2022-07-09T11:59:45;1.80;;;1.10;;
51184;SDS011;37248;59.350;18.050;2022-07-09T12:02:10;2.10;;;1.00;;
51184;SDS011;37248;59.350;18.050;2022-07-09T12:04:36;1.50;;;0.90;;
51184;SDS011;37248;59.350;18.050;2022-07-09T12:07:01;2.20;;;1.20;;
51184;SDS011;37248;59.350;18.050;2022-07-09T12:09:34;1.92;;;0.90;;
51184;SDS011;37248;59.350;18.050;2022-07-09T12:11:59;1.60;;;0.70;;
51184;SDS011;37248;59.350;18.050;2022-07-09T12:14:25;1.60;;;0.77;;
51184;SDS011;37248;59.350;18.050;2022-07-09T12:16:50;1.80;;;0.90;;
51184;SDS011;37248;59.350;18.050;2022-07-09T12:19:16;2.20;;;1.00;;
51184;SDS011;37248;59.350;18.050;2022-07-09T12:21:41;1.33;;;0.70;;
51184;SDS011;37248;59.350;18.050;2022-07-09T12:24:06;1.30;;;0.50;;
51184;SDS011;37248;59.350;18.050;2022-07-09T12:26:31;2.27;;;0.87;;
51184;SDS011;37248;59.350;18.050;2022-07-09T12:28:58;1.20;;;0.70;;
51184;SDS011;37248;59.350;18.050;2022-07-09T12:31:23;1.20;;;0.90;;
51184;SDS011;37248;59.350;18.050;2022-07-09T12:33:48;2.43;;;0.87;;
51184;SDS011;37248;59.350;18.050;2022-07-09T12:36:13;1.03;;;0.70;;
51184;SDS011;37248;59.350;18.050;2022-07-09T12:38:41;1.53;;;0.67;;
51184;SDS011;37248;59.350;18.050;2022-07-09T12:41:06;1.47;;;0.70;;
51184;SDS011;37248;59.350;18.050;2022-07-09T12:43:32;0.87;;;0.63;;
51184;SDS011;37248;59.350;18.050;2022-07-09T12:45:57;1.00;;;0.60;;
51184;SDS011;37248;59.350;18.050;2022-07-09T12:48:23;1.90;;;0.80;;
51184;SDS011;37248;59.350;18.050;2022-07-09T12:50:48;1.33;;;0.68;;
51184;SDS011;37248;59.350;18.050;2022-07-09T12:53:14;1.27;;;0.73;;
51184;SDS011;37248;59.350;18.050;2022-07-09T12:55:39;1.67;;;0.90;;
51184;SDS011;37248;59.350;18.050;2022-07-09T12:58:04;1.30;;;0.60;;
51184;SDS011;37248;59.350;18.050;2022-07-09T13:00:29;1.27;;;0.70;;
51184;SDS011;37248;59.350;18.050;2022-07-09T13:02:55;1.70;;;0.67;;
51184;SDS011;37248;59.350;18.050;2022-07-09T13:05:20;1.17;;;0.80;;
51184;SDS011;37248;59.350;18.050;2022-07-09T13:07:45;1.00;;;0.50;;
51184;SDS011;37248;59.350;18.050;2022-07-09T13:10:10;2.00;;;1.10;;
51184;SDS011;37248;59.350;18.050;2022-07-09T13:12:35;2.50;;;1.00;;
51184;SDS011;37248;59.350;18.050;2022-07-09T13:15:01;0.93;;;0.60;;
51184;SDS011;37248;59.350;18.050;2022-07-09T13:17:26;1.13;;;0.70;;
51184;SDS011;37248;59.350;18.050;2022-07-09T13:19:52;1.20;;;0.67;;
51184;SDS011;37248;59.350;18.050;2022-07-09T13:22:19;1.00;;;0.60;;
51184;SDS011;37248;59.350;18.050;2022-07-09T13:24:44;1.03;;;0.60;;
51184;SDS011;37248;59.350;18.050;2022-07-09T13:27:09;2.15;;;0.90;;
51184;SDS011;37248;59.350;18.050;2022-07-09T13:29:36;1.20;;;0.60;;
51184;SDS011;37248;59.350;18.050;2022-07-09T13:32:01;2.00;;;0.85;;
51184;SDS011;37248;59.350;18.050;2022-07-09T13:34:27;2.00;;;0.90;;
51184;SDS011;37248;59.350;18.050;2022-07-09T13:36:52;1.10;;;0.60;;
51184;SDS011;37248;59.350;18.050;2022-07-09T13:39:18;1.07;;;0.60;;
51184;SDS011;37248;59.350;18.050;2022-07-09T13:41:43;1.23;;;0.67;;
51184;SDS011;37248;59.350;18.050;2022-07-09T13:44:08;1.33;;;0.77;;
51184;SDS011;37248;59.350;18.050;2022-07-09T13:46:34;0.90;;;0.67;;
51184;SDS011;37248;59.350;18.050;2022-07-09T13:48:59;1.57;;;1.00;;
51184;SDS011;37248;59.350;18.050;2022-07-09T13:51:24;1.57;;;0.70;;
51184;SDS011;37248;59.350;18.050;2022-07-09T13:53:49;0.90;;;0.57;;
51184;SDS011;37248;59.350;18.050;2022-07-09T13:56:15;1.10;;;0.73;;
51184;SDS011;37248;59.350;18.050;2022-07-09T13:58:40;1.50;;;0.77;;
51184;SDS011;37248;59.350;18.050;2022-07-09T14:01:07;0.90;;;0.50;;
51184;SDS011;37248;59.350;18.050;2022-07-09T14:03:32;1.00;;;0.60;;
51184;SDS011;37248;59.350;18.050;2022-07-09T14:05:57;1.00;;;0.60;;
51184;SDS011;37248;59.350;18.050;2022-07-09T14:08:22;0.93;;;0.60;;
51184;SDS011;37248;59.350;18.050;2022-07-09T14:10:49;2.13;;;0.80;;
51184;SDS011;37248;59.350;18.050;2022-07-09T14:13:22;1.20;;;0.73;;
51184;SDS011;37248;59.350;18.050;2022-07-09T14:15:47;1.07;;;0.70;;
51184;SDS011;37248;59.350;18.050;2022-07-09T14:18:13;1.10;;;0.60;;
51184;SDS011;37248;59.350;18.050;2022-07-09T14:20:38;1.13;;;0.67;;
51184;SDS011;37248;59.350;18.050;2022-07-09T14:23:03;1.20;;;0.70;;
51184;SDS011;37248;59.350;18.050;2022-07-09T14:25:28;1.13;;;0.73;;
51184;SDS011;37248;59.350;18.050;2022-07-09T14:27:54;1.23;;;0.60;;
51184;SDS011;37248;59.350;18.050;2022-07-09T14:30:19;1.20;;;0.80;;